Time;durP1;ratioP1;P1;durP2;ratioP2;P2;SDS_P1;SDS_P2;PMS_P1;PMS_P2;Temp;Humidity;BMP_temperature;BMP_pressure;BME280_temperature;BME280_humidity;BME280_pressure;Samples;Min_cycle;Max_cycle;Signal;HPM_P1;HPM_P2
2023/05/19 00:02:26;;;;;;;5.47;3.57;;;11.30;88.10;;;11.01;57.46;102111.97;5016155;28;20275;-74
2023/05/19 00:05:01;;;;;;;8.10;3.50;;;11.40;88.00;;;10.85;57.51;102106.22;5016594;28;20287;-74
2023/05/19 00:07:38;;;;;;;9.37;3.33;;;11.30;88.20;;;10.83;57.71;102100.97;5016275;28;20713;-74
2023/05/19 00:10:14;;;;;;;10.80;3.77;;;11.20;88.70;;;10.88;57.70;102098.78;5015888;28;20247;-74
2023/05/19 00:12:49;;;;;;;13.33;4.33;;;11.20;88.60;;;10.72;57.86;102097.50;5016691;28;20203;-74
2023/05/19 00:15:27;;;;;;;9.23;4.70;;;11.10;89.00;;;10.62;57.99;102097.41;5016758;28;20204;-74
2023/05/19 00:18:00;;;;;;;8.17;4.20;;;11.00;89.40;;;10.59;58.52;102105.69;5016474;28;20278;-74
2023/05/19 00:20:34;;;;;;;5.83;3.93;;;11.00;90.00;;;10.66;58.40;102099.72;5016529;28;20223;-74
2023/05/19 00:23:07;;;;;;;7.53;3.93;;;11.00;90.00;;;10.62;58.45;102108.13;5016773;28;20259;-75
2023/05/19 00:25:41;;;;;;;7.93;4.07;;;11.00;90.00;;;10.62;58.33;102106.28;5016319;28;20196;-75
2023/05/19 00:28:14;;;;;;;7.07;3.60;;;11.10;90.00;;;10.59;58.47;102095.84;5016132;28;20191;-75
2023/05/19 00:30:48;;;;;;;7.07;4.00;;;11.00;90.10;;;10.72;57.97;102098.34;5016033;28;20319;-75
2023/05/19 00:33:22;;;;;;;7.60;3.80;;;11.10;90.00;;;10.75;58.41;102099.94;5016017;28;20660;-75
2023/05/19 00:35:55;;;;;;;6.53;3.70;;;11.20;90.00;;;10.76;58.28;102096.25;5016503;28;20198;-75
2023/05/19 00:38:28;;;;;;;9.40;4.00;;;11.20;90.00;;;10.69;58.55;102098.59;5016230;28;20202;-75
2023/05/19 00:41:03;;;;;;;8.67;3.70;;;11.10;90.50;;;10.68;58.44;102099.59;5016522;28;20295;-75
2023/05/19 00:43:36;;;;;;;8.17;4.03;;;11.10;90.20;;;10.54;58.87;102092.72;5016184;28;20210;-75
2023/05/19 00:46:10;;;;;;;7.17;3.40;;;11.00;90.40;;;10.55;59.26;102093.53;5016336;28;20279;-75
2023/05/19 00:48:44;;;;;;;7.57;4.47;;;11.00;90.60;;;10.56;59.23;102089.88;5015758;28;20715;-75
2023/05/19 00:51:19;;;;;;;5.67;3.60;;;11.00;90.70;;;10.53;59.33;102085.66;5016128;28;20662;-75
2023/05/19 00:53:53;;;;;;;8.80;3.63;;;11.00;90.80;;;10.48;59.88;102087.84;5015533;28;20191;-74
2023/05/19 00:56:26;;;;;;;6.03;3.57;;;10.90;91.10;;;10.44;59.59;102086.41;5015928;28;20279;-74
2023/05/19 00:59:00;;;;;;;8.83;4.10;;;10.90;90.90;;;10.25;60.52;102086.22;5015868;28;20184;-74
2023/05/19 01:01:33;;;;;;;7.77;4.17;;;10.70;91.20;;;10.31;60.52;102091.06;5015574;28;20231;-74
2023/05/19 01:04:09;;;;;;;8.80;4.30;;;10.70;91.60;;;10.26;60.88;102089.75;5016076;28;20192;-74
2023/05/19 01:06:43;;;;;;;10.00;4.30;;;10.70;91.80;;;10.29;60.40;102087.66;5016877;28;20230;-74
2023/05/19 01:09:17;;;;;;;10.97;4.60;;;10.70;91.80;;;10.34;60.75;102079.28;5016089;28;20218;-74
2023/05/19 01:11:50;;;;;;;6.47;4.33;;;10.80;91.90;;;10.39;60.27;102083.25;5016219;28;20345;-74
2023/05/19 01:14:24;;;;;;;10.00;4.73;;;10.90;91.70;;;10.40;60.61;102084.97;5015888;28;20191;-74
2023/05/19 01:17:08;;;;;;;6.57;4.20;;;10.80;91.80;;;10.37;60.90;102079.00;5015956;28;20653;-74
2023/05/19 01:20:05;;;;;;;8.47;4.47;;;10.80;92.40;;;10.31;61.07;102084.88;5016735;28;20191;-74
2023/05/19 01:23:27;;;;;;;6.57;4.27;;;10.70;92.20;;;10.21;61.48;102084.75;5016259;28;20192;-74
2023/05/19 01:26:26;;;;;;;8.77;3.83;;;10.60;92.70;;;10.30;61.01;102084.03;5021292;28;20314;-74
2023/05/19 01:29:27;;;;;;;8.00;4.00;;;10.70;92.50;;;10.27;61.52;102088.78;5022443;28;20278;-74
2023/05/19 01:32:04;;;;;;;9.70;4.50;;;10.70;92.70;;;10.26;61.71;102076.34;5022214;28;20324;-74
2023/05/19 01:34:42;;;;;;;8.80;4.37;;;10.70;92.60;;;10.23;61.83;102081.97;5022045;28;20222;-74
2023/05/19 01:37:17;;;;;;;9.03;4.00;;;10.70;92.60;;;10.27;61.62;102084.28;5022389;28;20226;-74
2023/05/19 01:39:52;;;;;;;7.33;4.07;;;10.70;92.70;;;10.23;62.13;102085.50;5021917;28;20663;-72
2023/05/19 01:42:27;;;;;;;8.43;3.60;;;10.70;92.70;;;10.14;62.36;102086.22;5019866;28;20683;-72
2023/05/19 01:45:01;;;;;;;9.70;4.47;;;10.60;93.00;;;10.14;61.89;102078.19;5020134;28;20596;-72
2023/05/19 01:47:37;;;;;;;7.40;3.83;;;10.50;93.10;;;10.08;62.31;102074.19;5020108;28;20218;-72
2023/05/19 01:50:13;;;;;;;12.00;4.53;;;10.50;93.20;;;10.09;62.19;102069.69;5020162;28;20211;-72
2023/05/19 01:52:46;;;;;;;6.17;4.00;;;10.60;93.20;;;10.11;62.40;102073.06;5020043;28;20279;-72
2023/05/19 01:55:22;;;;;;;9.00;4.27;;;10.60;93.30;;;10.17;61.78;102070.78;5019994;28;20198;-72
2023/05/19 01:58:13;;;;;;;10.57;4.50;;;10.60;93.20;;;10.04;62.73;102080.75;5020007;28;20226;-72
2023/05/19 02:01:03;;;;;;;9.60;4.57;;;10.40;93.50;;;9.94;63.00;102076.25;5019603;28;20737;-72
2023/05/19 02:04:03;;;;;;;12.33;4.37;;;10.30;93.80;;;9.97;62.86;102087.56;5019807;28;20738;-72
2023/05/19 02:06:46;;;;;;;9.37;3.90;;;10.40;93.70;;;9.95;62.96;102086.84;5019886;28;20226;-72
2023/05/19 02:09:23;;;;;;;9.43;4.10;;;10.40;93.70;;;9.98;63.02;102083.06;5019534;28;20229;-72
2023/05/19 02:12:04;;;;;;;8.43;4.00;;;10.40;93.70;;;9.97;62.86;102087.56;5019863;28;20227;-72
2023/05/19 02:14:45;;;;;;;8.73;3.87;;;10.40;93.70;;;10.01;62.76;102088.16;5019507;28;20643;-72
2023/05/19 02:17:20;;;;;;;10.47;4.50;;;10.50;93.80;;;9.98;63.24;102085.75;5020080;28;20282;-72
2023/05/19 02:19:53;;;;;;;8.07;3.80;;;10.40;93.80;;;9.93;63.29;102085.28;5019778;28;20198;-73
2023/05/19 02:22:26;;;;;;;9.20;4.07;;;10.40;94.30;;;9.85;63.49;102090.38;5019812;28;20600;-72
2023/05/19 02:25:00;;;;;;;8.17;3.97;;;10.30;94.00;;;9.86;63.46;102084.06;5019495;28;20563;-72
2023/05/19 02:27:33;;;;;;;7.13;3.73;;;10.30;94.20;;;9.86;63.59;102082.25;5019661;28;20641;-72
2023/05/19 02:30:09;;;;;;;7.57;3.80;;;10.30;94.10;;;9.78;63.73;102081.16;5019613;28;20631;-72
2023/05/19 02:32:45;;;;;;;9.13;4.03;;;10.30;94.50;;;9.81;64.05;102086.25;5019529;28;20257;-72
2023/05/19 02:35:19;;;;;;;8.10;3.93;;;10.30;94.50;;;9.75;64.29;102086.75;5017896;28;20653;-72
2023/05/19 02:37:53;;;;;;;10.40;4.33;;;10.20;94.50;;;9.77;63.58;102087.47;5016722;28;20195;-72
2023/05/19 02:40:27;;;;;;;6.43;3.63;;;10.30;94.30;;;9.79;63.94;102081.03;5016469;28;20224;-72
2023/05/19 02:43:00;;;;;;;7.43;3.63;;;10.30;94.30;;;9.66;64.33;102083.81;5016216;28;20658;-72
2023/05/19 02:45:34;;;;;;;7.93;4.20;;;10.20;94.40;;;9.64;64.59;102079.56;5016152;28;20727;-72
2023/05/19 02:48:08;;;;;;;10.00;4.23;;;10.10;94.90;;;9.59;64.97;102082.59;5016415;28;20291;-72
2023/05/19 02:50:41;;;;;;;8.50;4.47;;;10.00;95.00;;;9.63;64.46;102081.38;5015893;28;20234;-72
2023/05/19 02:53:15;;;;;;;7.43;3.90;;;10.10;94.90;;;9.62;64.04;102078.84;5016374;28;20274;-72
2023/05/19 02:55:48;;;;;;;6.80;4.10;;;10.10;94.80;;;9.58;65.09;102075.56;5016295;28;20210;-72
2023/05/19 02:58:21;;;;;;;13.13;4.10;;;10.00;95.20;;;9.61;64.87;102069.97;5016229;28;20215;-72
2023/05/19 03:00:55;;;;;;;8.07;4.03;;;10.10;95.20;;;9.51;65.27;102074.34;5016097;28;20417;-73
2023/05/19 03:03:28;;;;;;;10.00;4.10;;;10.00;95.30;;;9.54;65.36;102074.13;5015842;28;20542;-72
2023/05/19 03:06:01;;;;;;;11.40;4.63;;;10.00;95.50;;;9.49;65.95;102070.94;5016152;28;20234;-72
2023/05/19 03:08:35;;;;;;;9.80;4.07;;;10.00;95.60;;;9.42;66.26;102067.03;5016059;28;20246;-72
2023/05/19 03:11:09;;;;;;;11.47;4.20;;;9.90;95.60;;;9.41;66.14;102069.84;5016179;28;20231;-72
2023/05/19 03:13:42;;;;;;;11.67;4.00;;;9.90;95.70;;;9.38;66.18;102068.28;5015942;28;20191;-72
2023/05/19 03:16:15;;;;;;;9.43;4.10;;;9.90;95.90;;;9.30;66.61;102070.69;5015895;28;20274;-72
2023/05/19 03:18:50;;;;;;;8.70;4.40;;;9.80;96.00;;;9.24;67.01;102063.16;5015832;28;20207;-72
2023/05/19 03:21:23;;;;;;;10.17;4.50;;;9.70;96.30;;;9.24;67.70;102071.19;5015727;28;20398;-72
2023/05/19 03:23:56;;;;;;;10.63;4.60;;;9.70;96.50;;;9.30;66.77;102062.66;5015745;28;20192;-72
2023/05/19 03:26:30;;;;;;;8.20;4.13;;;9.80;96.40;;;9.24;67.64;102073.00;5015627;28;20279;-73
2023/05/19 03:29:03;;;;;;;12.67;4.43;;;9.70;96.50;;;9.30;67.21;102065.34;5015672;28;20234;-72
2023/05/19 03:31:37;;;;;;;9.00;4.37;;;9.80;96.60;;;9.26;67.46;102074.56;5015383;28;20286;-72
2023/05/19 03:34:10;;;;;;;10.97;4.50;;;9.70;96.60;;;9.25;67.33;102069.31;5015477;28;20246;-72
2023/05/19 03:36:43;;;;;;;9.17;4.20;;;9.70;96.40;;;9.32;67.19;102071.41;5015531;28;20380;-72
2023/05/19 03:39:17;;;;;;;9.07;4.33;;;9.80;96.60;;;9.22;67.99;102070.41;5015453;28;20280;-71
2023/05/19 03:41:50;;;;;;;7.30;4.60;;;9.70;96.70;;;9.18;68.15;102061.78;5015357;28;20262;-72
2023/05/19 03:44:24;;;;;;;11.23;4.50;;;9.70;97.00;;;9.18;67.98;102065.47;5015353;28;20251;-72
2023/05/19 03:46:57;;;;;;;9.73;5.07;;;9.70;97.00;;;9.20;67.93;102075.06;5015002;28;20199;-72
2023/05/19 03:49:30;;;;;;;6.20;4.07;;;9.70;96.90;;;9.22;67.99;102073.09;5015217;28;20640;-72
2023/05/19 03:52:04;;;;;;;10.40;4.47;;;9.70;96.90;;;9.14;68.18;102071.00;5015124;28;20242;-72
2023/05/19 03:54:38;;;;;;;9.67;4.33;;;9.70;97.10;;;9.14;68.69;102063.00;5015164;28;20196;-72
2023/05/19 03:57:13;;;;;;;8.43;4.37;;;9.60;97.40;;;9.00;69.06;102068.59;5014856;28;20287;-72
2023/05/19 03:59:47;;;;;;;7.27;4.20;;;9.50;97.30;;;9.04;69.25;102064.69;5015050;28;20214;-72
2023/05/19 04:02:20;;;;;;;7.67;4.30;;;9.50;97.60;;;9.02;69.32;102063.97;5015080;28;20275;-72
2023/05/19 04:04:54;;;;;;;9.77;4.53;;;9.50;97.70;;;9.04;69.77;102069.19;5014971;28;20222;-72
2023/05/19 04:07:28;;;;;;;13.13;4.67;;;9.50;97.70;;;9.01;69.74;102067.59;5014970;28;20196;-72
2023/05/19 04:10:02;;;;;;;11.70;4.20;;;9.60;97.80;;;8.95;69.88;102068.06;5014522;28;20191;-72
2023/05/19 04:12:35;;;;;;;7.53;4.30;;;9.50;97.90;;;9.00;69.79;102059.72;5014829;28;20216;-72
2023/05/19 04:15:13;;;;;;;10.50;4.57;;;9.50;98.10;;;9.03;69.97;102070.16;5014809;28;20367;-72
2023/05/19 04:17:47;;;;;;;9.47;4.13;;;9.50;98.10;;;9.03;70.32;102067.50;5014450;28;20631;-72
2023/05/19 04:20:20;;;;;;;8.43;4.63;;;9.60;98.00;;;9.01;69.70;102070.25;5014649;28;20227;-72
2023/05/19 04:22:53;;;;;;;12.63;4.60;;;9.60;98.20;;;9.04;69.78;102071.88;5014378;28;20295;-72
2023/05/19 04:25:27;;;;;;;8.87;4.40;;;9.60;98.10;;;9.09;70.05;102069.69;5014267;28;20585;-72
2023/05/19 04:28:01;;;;;;;12.80;5.00;;;9.70;97.90;;;9.12;69.82;102072.97;5014613;28;20242;-72
2023/05/19 04:30:35;;;;;;;7.97;4.17;;;9.70;97.80;;;9.09;70.12;102080.38;5014173;28;20711;-72
2023/05/19 04:33:09;;;;;;;11.73;4.47;;;9.70;98.00;;;9.12;70.12;102082.78;5014390;28;20285;-72
2023/05/19 04:35:43;;;;;;;9.17;4.67;;;9.70;98.20;;;9.13;69.98;102080.03;5014194;28;20641;-71
2023/05/19 04:38:17;;;;;;;8.30;4.50;;;9.70;98.20;;;9.09;69.98;102085.72;5014370;28;20286;-71
2023/05/19 04:40:51;;;;;;;10.97;4.67;;;9.70;98.40;;;9.10;70.55;102074.91;5013974;28;20226;-72
2023/05/19 04:43:26;;;;;;;10.97;4.80;;;9.70;98.50;;;8.98;71.57;102081.19;5014314;28;20200;-72
2023/05/19 04:46:00;;;;;;;11.53;4.73;;;9.60;98.60;;;9.04;71.57;102083.38;5014317;28;20282;-72
2023/05/19 04:48:34;;;;;;;13.90;4.60;;;9.60;98.80;;;9.12;71.09;102090.81;5014927;28;20187;-72
2023/05/19 04:51:08;;;;;;;10.63;4.50;;;9.70;98.70;;;9.13;71.23;102084.50;5014242;28;20709;-72
2023/05/19 04:53:41;;;;;;;7.80;4.17;;;9.70;98.70;;;9.18;71.04;102090.34;5013984;28;20629;-72
2023/05/19 04:56:14;;;;;;;11.70;4.53;;;9.80;98.70;;;9.18;71.12;102083.16;5014231;28;20196;-72
2023/05/19 04:58:48;;;;;;;7.77;4.50;;;9.80;98.80;;;9.18;71.95;102086.84;5013510;28;20188;-72
2023/05/19 05:01:24;;;;;;;11.23;4.93;;;9.80;98.90;;;9.18;72.32;102087.66;5014048;28;20220;-72
2023/05/19 05:04:00;;;;;;;8.80;4.40;;;9.70;99.20;;;9.22;71.79;102088.28;5014031;28;20195;-72
2023/05/19 05:06:37;;;;;;;11.17;5.37;;;9.80;99.40;;;9.22;71.44;102089.13;5013634;28;20637;-72
2023/05/19 05:09:10;;;;;;;12.13;4.87;;;9.80;98.80;;;9.22;71.50;102088.28;5013957;28;20209;-72
2023/05/19 05:11:46;;;;;;;9.43;4.10;;;9.80;98.90;;;9.21;71.50;102083.91;5013764;28;20318;-72
2023/05/19 05:14:22;;;;;;;12.73;5.00;;;9.80;98.90;;;9.21;71.84;102084.78;5013883;28;20282;-72
2023/05/19 05:16:56;;;;;;;8.70;4.30;;;9.80;98.90;;;9.28;71.09;102077.97;5013886;28;20278;-72
2023/05/19 05:19:32;;;;;;;10.13;4.60;;;9.90;98.80;;;9.29;71.75;102071.66;5013526;28;20658;-72
2023/05/19 05:22:07;;;;;;;11.93;4.43;;;9.90;99.00;;;9.29;71.99;102079.66;5013784;28;20266;-73
2023/05/19 05:24:41;;;;;;;10.40;4.63;;;9.90;99.00;;;9.22;72.00;102073.09;5013777;28;20274;-72
2023/05/19 05:27:14;;;;;;;11.17;4.57;;;9.80;99.10;;;9.23;71.72;102084.63;5013813;28;20625;-72
2023/05/19 05:29:47;;;;;;;11.53;4.93;;;9.90;99.10;;;9.22;71.81;102080.25;5013779;28;20195;-72
2023/05/19 05:32:24;;;;;;;11.43;4.30;;;9.90;99.10;;;9.25;72.04;102075.53;5013403;28;20227;-72
2023/05/19 05:34:58;;;;;;;9.27;4.43;;;9.90;99.10;;;9.30;71.80;102069.84;5013620;28;20199;-71
2023/05/19 05:37:32;;;;;;;11.43;4.70;;;10.00;98.90;;;9.32;71.50;102074.06;5013400;28;20732;-66
2023/05/19 05:40:06;;;;;;;12.20;4.77;;;10.00;98.90;;;9.37;71.81;102068.38;5013530;28;20192;-72
2023/05/19 05:42:40;;;;;;;12.00;4.77;;;10.00;98.90;;;9.43;70.67;102071.44;5013594;28;20187;-72
2023/05/19 05:45:15;;;;;;;9.63;4.30;;;10.10;98.70;;;9.43;71.18;102074.09;5013619;28;20291;-72
2023/05/19 05:47:52;;;;;;;9.27;4.07;;;10.10;98.80;;;9.49;71.35;102075.44;5013573;28;20187;-72
2023/05/19 05:50:27;;;;;;;10.30;4.13;;;10.20;98.80;;;9.54;71.20;102068.75;5013189;28;20742;-72
2023/05/19 05:53:03;;;;;;;10.60;4.50;;;10.20;98.80;;;9.58;70.61;102064.88;5013145;28;20329;-72
2023/05/19 05:55:38;;;;;;;9.63;4.53;;;10.30;98.50;;;9.61;70.63;102067.31;5013493;28;20195;-72
2023/05/19 05:58:14;;;;;;;8.90;4.00;;;10.30;98.50;;;9.67;70.85;102074.84;5013147;28;20565;-72
2023/05/19 06:00:48;;;;;;;8.30;3.90;;;10.30;98.40;;;9.72;69.88;102076.28;5013475;28;20569;-72
2023/05/19 06:03:23;;;;;;;10.07;3.90;;;10.40;98.10;;;9.75;69.67;102081.41;5013410;28;20202;-72
2023/05/19 06:05:56;;;;;;;10.60;4.73;;;10.40;98.10;;;9.78;69.77;102070.44;5013375;28;20191;-72
2023/05/19 06:08:30;;;;;;;9.00;3.73;;;10.50;98.00;;;9.85;69.59;102079.69;5013605;28;20207;-72
2023/05/19 06:11:07;;;;;;;7.90;3.83;;;10.50;97.80;;;9.90;69.76;102080.16;5015358;28;20661;-72
2023/05/19 06:13:41;;;;;;;8.17;4.03;;;10.50;97.80;;;9.97;69.26;102086.72;5016995;28;20230;-73
2023/05/19 06:16:14;;;;;;;6.40;3.80;;;10.60;97.70;;;9.98;68.40;102088.41;5017296;28;20279;-72
2023/05/19 06:18:48;;;;;;;8.97;4.60;;;10.60;97.30;;;10.03;68.52;102080.88;5016960;28;20196;-72
2023/05/19 06:21:21;;;;;;;11.53;4.20;;;10.70;97.20;;;10.06;68.11;102086.00;5016876;28;20258;-72
2023/05/19 06:23:55;;;;;;;8.30;3.63;;;10.70;97.10;;;10.12;68.34;102090.84;5016875;28;20257;-73
2023/05/19 06:26:28;;;;;;;10.53;3.87;;;10.80;97.10;;;10.15;67.35;102091.47;5016856;28;20196;-72
2023/05/19 06:29:01;;;;;;;9.93;4.00;;;10.80;96.80;;;10.14;67.55;102099.59;5017009;28;20188;-72
2023/05/19 06:31:34;;;;;;;7.03;3.83;;;10.80;96.80;;;10.14;67.18;102089.75;5016493;28;20227;-72
2023/05/19 06:34:11;;;;;;;9.87;4.37;;;10.80;96.70;;;10.15;67.05;102091.47;5016591;28;20265;-72
2023/05/19 06:36:44;;;;;;;10.23;3.83;;;10.80;96.50;;;10.17;67.46;102092.19;5016662;28;20246;-72
2023/05/19 06:39:18;;;;;;;10.17;3.63;;;10.80;96.70;;;10.22;67.19;102094.50;5016305;28;20632;-72
2023/05/19 06:41:51;;;;;;;6.63;3.70;;;10.90;96.60;;;10.18;66.99;102093.91;5016199;28;20802;-72
2023/05/19 06:44:24;;;;;;;8.60;3.73;;;10.90;96.50;;;10.22;67.04;102097.16;5016280;28;20191;-72
2023/05/19 06:46:58;;;;;;;8.00;3.77;;;10.90;96.60;;;10.29;67.58;102092.16;5016494;28;20287;-72
2023/05/19 06:49:31;;;;;;;8.20;3.87;;;11.00;96.90;;;10.39;67.23;102093.97;5016866;28;20307;-73
2023/05/19 06:52:05;;;;;;;6.37;3.60;;;11.00;96.80;;;10.46;67.41;102097.84;5017094;28;20232;-73
2023/05/19 06:54:38;;;;;;;7.20;3.53;;;11.10;96.60;;;10.51;66.92;102092.94;5016100;28;20601;-72
2023/05/19 06:57:11;;;;;;;8.90;4.23;;;11.20;96.40;;;10.61;66.49;102091.22;5016289;28;20228;-73
2023/05/19 06:59:45;;;;;;;7.77;3.60;;;11.30;96.30;;;10.66;66.10;102088.13;5016497;28;20192;-72
2023/05/19 07:02:18;;;;;;;10.37;4.07;;;11.40;96.10;;;10.69;66.44;102086.06;5016187;28;20183;-72
2023/05/19 07:04:52;;;;;;;11.87;3.77;;;11.40;96.10;;;10.82;65.94;102085.03;5016191;28;20200;-72
2023/05/19 07:07:26;;;;;;;10.37;3.93;;;11.50;96.00;;;10.87;67.00;102093.53;5016129;28;20246;-72
2023/05/19 07:10:00;;;;;;;8.17;3.97;;;11.60;96.40;;;10.97;66.40;102095.31;5015636;28;20641;-73
2023/05/19 07:12:33;;;;;;;8.53;3.83;;;11.60;96.10;;;11.03;64.68;102099.28;5015911;28;20216;-72
2023/05/19 07:15:08;;;;;;;7.90;4.13;;;11.70;95.50;;;11.11;65.36;102094.13;5016202;28;20199;-73
2023/05/19 07:17:42;;;;;;;8.87;3.83;;;11.80;95.60;;;11.18;65.54;102100.66;5015561;28;20282;-73
2023/05/19 07:20:16;;;;;;;9.33;4.00;;;11.80;95.50;;;11.14;64.40;102097.41;5015459;28;20645;-73
2023/05/19 07:22:50;;;;;;;8.47;3.37;;;11.80;95.00;;;11.25;64.07;102099.16;5015068;28;20274;-73
2023/05/19 07:25:24;;;;;;;5.97;3.20;;;11.90;95.10;;;11.32;64.75;102094.13;5015790;28;20226;-73
2023/05/19 07:27:57;;;;;;;6.27;3.43;;;12.00;95.50;;;11.42;64.51;102085.16;5015672;28;20225;-73
2023/05/19 07:30:32;;;;;;;10.33;3.40;;;12.10;95.20;;;11.51;63.42;102081.66;5015563;28;20228;-72
2023/05/19 07:33:07;;;;;;;5.63;3.43;;;12.20;94.50;;;11.53;63.67;102079.72;5015224;28;20761;-73
2023/05/19 07:35:40;;;;;;;7.50;3.80;;;12.20;94.50;;;11.69;63.39;102079.19;5015621;28;20274;-73
2023/05/19 07:38:13;;;;;;;7.20;3.70;;;12.40;94.50;;;11.71;64.68;102079.13;5015513;28;20227;-72
2023/05/19 07:40:47;;;;;;;9.37;3.47;;;12.40;95.30;;;11.87;63.29;102079.44;5015388;28;20231;-73
2023/05/19 07:43:20;;;;;;;8.57;3.57;;;12.50;94.60;;;11.89;62.41;102072.09;5016236;28;20286;-73
2023/05/19 07:45:55;;;;;;;8.37;3.53;;;12.60;94.00;;;11.99;61.75;102070.28;5016183;28;20196;-69
2023/05/19 07:48:29;;;;;;;5.53;3.70;;;12.60;93.90;;;12.03;63.09;102067.22;5015587;28;20201;-64
2023/05/19 07:51:02;;;;;;;9.83;4.20;;;12.70;94.20;;;12.08;61.67;102069.50;5015332;28;20318;-71
2023/05/19 07:53:35;;;;;;;6.70;3.40;;;12.70;93.50;;;12.14;61.55;102068.94;5014781;28;20636;-71
2023/05/19 07:56:09;;;;;;;9.80;3.47;;;12.80;93.30;;;12.26;61.51;102072.34;5015001;28;20279;-71
2023/05/19 07:58:42;;;;;;;6.70;3.40;;;12.90;93.90;;;12.40;61.23;102078.16;5014668;28;20624;-71
2023/05/19 08:01:15;;;;;;;7.93;3.17;;;13.00;93.30;;;12.43;62.14;102077.88;5014663;28;20681;-72
2023/05/19 08:03:49;;;;;;;6.83;3.27;;;13.10;93.40;;;12.51;59.71;102063.75;5014670;28;20191;-72
2023/05/19 08:06:24;;;;;;;6.80;3.30;;;13.20;92.70;;;12.64;60.12;102069.69;5014993;28;20202;-71
2023/05/19 08:08:57;;;;;;;8.57;3.80;;;13.30;92.50;;;12.71;59.94;102068.13;5015030;28;20431;-71
2023/05/19 08:11:31;;;;;;;6.73;3.33;;;13.40;92.40;;;12.82;58.69;102064.44;5014936;28;20240;-72
2023/05/19 08:14:04;;;;;;;8.53;3.20;;;13.50;92.20;;;12.85;60.51;102061.47;5013965;28;20262;-73
2023/05/19 08:16:37;;;;;;;8.73;3.47;;;13.50;92.90;;;12.96;59.95;102059.47;5014502;28;20218;-73
2023/05/19 08:19:11;;;;;;;8.43;3.37;;;13.60;92.40;;;13.07;57.56;102061.16;5014497;28;20649;-73
2023/05/19 08:21:44;;;;;;;7.83;3.67;;;13.70;91.50;;;13.13;61.02;102061.47;5014722;28;20231;-72
2023/05/19 08:24:17;;;;;;;8.73;3.30;;;13.80;93.10;;;13.20;60.82;102054.50;5014761;28;20250;-72
2023/05/19 08:26:51;;;;;;;5.47;2.77;;;13.90;92.70;;;13.39;58.40;102050.91;5014634;28;20220;-73
2023/05/19 08:29:24;;;;;;;8.53;3.43;;;14.10;91.60;;;13.45;57.40;102061.09;5015521;28;20715;-72
2023/05/19 08:31:58;;;;;;;9.67;3.03;;;14.10;91.00;;;13.71;56.16;102054.03;5022925;28;20295;-70
2023/05/19 08:34:32;;;;;;;8.50;3.30;;;14.30;90.60;;;13.77;55.32;102059.84;5022526;28;20277;-71
2023/05/19 08:37:05;;;;;;;5.67;3.10;;;14.40;90.10;;;13.82;55.19;102049.47;5023873;28;20215;-71
2023/05/19 08:39:39;;;;;;;7.10;3.70;;;14.40;90.00;;;13.91;55.62;102057.47;5017688;28;20192;-72
2023/05/19 08:42:13;;;;;;;6.53;3.00;;;14.50;89.80;;;14.01;55.12;102052.03;5016656;28;20227;-72
2023/05/19 08:44:46;;;;;;;7.47;3.40;;;14.60;88.80;;;14.02;55.84;102051.91;5014806;28;20227;-72
2023/05/19 08:47:19;;;;;;;7.30;3.03;;;14.70;90.00;;;14.16;54.54;102053.22;5014294;28;20223;-72
2023/05/19 08:50:03;;;;;;;6.87;2.90;;;14.80;88.50;;;14.40;54.63;102036.50;5013971;28;20573;-72
2023/05/19 08:52:56;;;;;;;5.63;3.10;;;15.00;89.40;;;14.59;53.38;102041.72;5014222;28;20195;-72
2023/05/19 08:55:41;;;;;;;7.73;3.20;;;15.20;87.20;;;14.72;54.37;102042.19;5014156;28;20191;-72
2023/05/19 08:58:19;;;;;;;5.43;2.90;;;15.40;87.70;;;14.79;52.04;102037.03;5014623;28;20641;-72
2023/05/19 09:00:53;;;;;;;6.90;3.70;;;15.40;84.60;;;14.83;53.59;102027.63;5014032;28;20269;-72
2023/05/19 09:03:27;;;;;;;5.30;2.63;;;15.40;86.60;;;15.07;50.16;102036.72;5014081;28;20194;-72
2023/05/19 09:06:03;;;;;;;5.97;3.07;;;15.60;82.10;;;15.11;52.31;102026.47;5014046;28;20678;-73
2023/05/19 09:08:37;;;;;;;8.10;3.30;;;15.70;84.60;;;15.16;50.84;102024.16;5013892;28;20187;-73
2023/05/19 09:11:11;;;;;;;8.50;3.20;;;15.70;83.20;;;15.32;51.22;102034.19;5013912;28;20263;-73
2023/05/19 09:13:45;;;;;;;8.00;2.70;;;15.90;83.70;;;15.34;49.24;102027.66;5013484;28;20646;-73
2023/05/19 09:16:19;;;;;;;6.87;2.73;;;15.90;80.40;;;15.30;52.45;102030.81;5013812;28;20196;-71
2023/05/19 09:19:00;;;;;;;4.23;2.50;;;15.90;83.70;;;15.35;50.78;102029.31;5013464;28;20246;-71
2023/05/19 09:21:36;;;;;;;9.73;3.43;;;15.90;82.10;;;15.54;50.17;102030.97;5013731;28;20662;-72
2023/05/19 09:24:11;;;;;;;7.00;2.83;;;16.10;82.20;;;15.64;52.05;102024.44;5013987;28;20286;-72
2023/05/19 09:26:45;;;;;;;8.20;3.10;;;16.20;83.00;;;15.71;50.93;102021.94;5013843;28;20195;-72
2023/05/19 09:29:20;;;;;;;7.23;3.10;;;16.20;83.10;;;15.64;50.46;102029.84;5013434;28;20679;-71
2023/05/19 09:31:59;;;;;;;10.23;4.07;;;16.20;81.60;;;15.64;50.88;102013.66;5013377;28;20782;-72
2023/05/19 09:34:33;;;;;;;8.87;3.37;;;16.20;82.00;;;15.64;53.97;102016.34;5013325;28;20322;-71
2023/05/19 09:37:06;;;;;;;6.13;2.93;;;16.20;85.20;;;15.71;53.27;102020.09;5013764;28;20187;-71
2023/05/19 09:39:40;;;;;;;7.50;3.30;;;16.20;85.40;;;15.89;51.48;102005.63;5013411;28;20562;-71
2023/05/19 09:42:15;;;;;;;4.80;2.70;;;16.40;83.90;;;16.23;49.17;101998.28;5013834;28;20318;-72
2023/05/19 09:44:50;;;;;;;9.37;6.63;;;16.70;80.60;;;16.35;48.78;102002.34;5014159;28;20286;-72
2023/05/19 09:47:24;;;;;;;7.27;3.00;;;16.90;79.90;;;16.58;46.38;101986.31;5017767;28;20277;-72
2023/05/19 09:49:58;;;;;;;7.33;3.43;;;17.10;76.40;;;16.60;50.54;101990.56;5017882;28;20250;-72
2023/05/19 09:52:34;;;;;;;4.33;2.70;;;17.10;80.70;;;16.71;45.39;101987.50;5017657;28;20227;-71
2023/05/19 09:55:11;;;;;;;6.30;3.27;;;17.30;75.00;;;16.93;45.49;101985.97;5017724;28;20206;-72
2023/05/19 09:57:46;;;;;;;5.77;3.03;;;17.40;73.90;;;17.11;46.03;101977.66;5017565;28;20219;-72
2023/05/19 10:00:23;;;;;;;4.33;2.80;;;17.60;74.00;;;17.22;45.12;101980.00;5017065;28;20258;-72
2023/05/19 10:02:58;;;;;;;5.87;2.70;;;17.70;72.60;;;17.46;44.58;101982.63;5018378;28;20198;-72
2023/05/19 10:05:33;;;;;;;5.20;2.63;;;18.00;71.30;;;17.51;41.99;101969.41;5017403;28;20187;-72
2023/05/19 10:08:11;;;;;;;6.43;2.43;;;18.00;67.20;;;17.70;42.29;101970.88;5017416;28;20287;-72
2023/05/19 10:10:48;;;;;;;8.37;4.30;;;18.20;68.60;;;17.74;42.62;101975.75;5017236;28;20227;-72
2023/05/19 10:13:23;;;;;;;6.10;3.20;;;18.20;68.50;;;17.69;43.68;101971.88;5017234;28;20202;-72
2023/05/19 10:15:58;;;;;;;6.33;3.57;;;18.20;69.40;;;17.67;43.76;101957.69;5017358;28;20278;-72
2023/05/19 10:18:36;;;;;;;5.87;2.67;;;18.10;69.00;;;17.98;41.90;101963.09;5017527;28;20238;-72
2023/05/19 10:21:13;;;;;;;4.60;2.80;;;18.40;69.50;;;17.98;42.10;101966.63;5017108;28;20305;-72
2023/05/19 10:23:47;;;;;;;4.13;2.60;;;18.40;66.50;;;17.93;40.23;101960.06;5017015;28;20226;-72
2023/05/19 10:26:22;;;;;;;5.00;2.43;;;18.30;64.90;;;17.77;39.55;101947.47;5017043;28;20283;-72
2023/05/19 10:28:58;;;;;;;4.23;1.90;;;18.30;63.00;;;17.84;40.44;101944.91;5016639;28;20186;-71
2023/05/19 10:31:33;;;;;;;3.83;2.30;;;18.20;62.70;;;18.11;40.76;101953.34;5016835;28;20259;-72
2023/05/19 10:34:33;;;;;;;3.20;2.03;;;18.50;64.20;;;18.33;38.45;101942.66;5016525;28;20296;-72
2023/05/19 10:37:19;;;;;;;4.53;2.20;;;18.80;60.70;;;18.59;37.94;101949.44;5016603;28;20648;-72
2023/05/19 10:39:55;;;;;;;3.23;2.23;;;19.00;59.40;;;18.77;37.51;101940.94;5016765;28;20227;-72
2023/05/19 10:42:45;;;;;;;4.47;2.00;;;19.20;58.10;;;18.85;38.35;101950.88;5016657;28;20191;-72
2023/05/19 10:45:26;;;;;;;3.57;2.10;;;19.30;59.70;;;18.82;35.17;101943.09;5016687;28;20286;-72
2023/05/19 10:48:00;;;;;;;2.47;2.00;;;19.20;55.30;;;18.62;35.73;101940.94;5016628;28;20278;-72
2023/05/19 10:50:43;;;;;;;7.17;3.10;;;19.00;55.10;;;18.67;37.63;101930.34;5016474;28;20224;-72